createdAt,value
2023-10-27T00:01:13.028Z,2282.26
2023-10-27T00:03:41.216Z,1769.47
2023-10-27T00:06:09.214Z,1319.54
2023-10-27T00:08:36.883Z,2266.77
2023-10-27T00:11:05.639Z,1990.13
2023-10-27T00:13:33.631Z,2463.94
2023-10-27T00:16:07.907Z,1804.00
2023-10-27T00:18:35.650Z,1608.84
2023-10-27T00:21:03.752Z,2386.26
2023-10-27T00:23:31.462Z,2321.07
2023-10-27T00:25:59.122Z,1597.48
2023-10-27T00:28:27.053Z,1218.07
2023-10-27T00:30:54.800Z,2285.06
2023-10-27T00:33:24.001Z,1167.62
2023-10-27T00:35:52.957Z,4130.52
2023-10-27T00:38:21.976Z,2940.51
2023-10-27T00:40:50.061Z,869.21
2023-10-27T00:43:19.132Z,673.30
2023-10-27T00:45:50.057Z,1008.13
2023-10-27T00:48:21.323Z,1471.42
2023-10-27T00:50:50.780Z,938.50
2023-10-27T00:53:20.838Z,837.37
2023-10-27T00:55:50.903Z,999.13
2023-10-27T00:58:22.195Z,561.70
2023-10-27T01:00:51.477Z,741.47
2023-10-27T01:03:20.272Z,400.01
2023-10-27T01:05:47.963Z,236.20
2023-10-27T01:08:17.348Z,269.82
2023-10-27T01:10:46.739Z,240.22
2023-10-27T01:13:14.493Z,224.66
2023-10-27T01:15:42.209Z,307.65
2023-10-27T01:18:09.922Z,270.89
2023-10-27T01:20:37.889Z,322.81
2023-10-27T01:23:07.044Z,315.31
2023-10-27T01:25:34.942Z,316.34
2023-10-27T01:28:02.903Z,372.45
2023-10-27T01:30:30.821Z,382.89
2023-10-27T01:32:58.902Z,479.48
2023-10-27T01:35:28.981Z,365.01
2023-10-27T01:37:56.765Z,510.12
2023-10-27T01:40:25.826Z,765.56
2023-10-27T01:42:53.579Z,623.88
2023-10-27T01:45:21.278Z,455.72
2023-10-27T01:47:49.013Z,930.73
2023-10-27T01:50:16.983Z,961.87
2023-10-27T01:52:44.653Z,1456.42
2023-10-27T01:55:12.358Z,1612.73
2023-10-27T01:57:44.012Z,1576.49
2023-10-27T02:00:14.049Z,1116.45
2023-10-27T02:02:43.346Z,5705.88
2023-10-27T02:05:11.124Z,10982.14
2023-10-27T02:07:38.845Z,3050.39
2023-10-27T02:10:07.642Z,1899.02
2023-10-27T02:12:35.587Z,4033.98
2023-10-27T02:15:05.659Z,6433.70
2023-10-27T02:17:33.633Z,8277.94
2023-10-27T02:20:01.428Z,6155.88
2023-10-27T02:22:29.211Z,8156.15
2023-10-27T02:24:56.938Z,6401.29
2023-10-27T02:27:24.702Z,3666.40
2023-10-27T02:29:52.368Z,2717.79
2023-10-27T02:32:21.392Z,2938.06
2023-10-27T02:34:49.086Z,2510.66
2023-10-27T02:37:16.842Z,8818.16
2023-10-27T02:39:44.817Z,5398.44
2023-10-27T02:42:12.747Z,9240.49
2023-10-27T02:44:42.843Z,6787.82
2023-10-27T02:47:10.567Z,7734.96
2023-10-27T02:49:39.658Z,5224.99
2023-10-27T02:52:07.437Z,9316.29
2023-10-27T02:54:36.194Z,5547.23
2023-10-27T02:57:04.129Z,2145.02
2023-10-27T02:59:31.997Z,403.56
2023-10-27T03:02:02.497Z,7289.75
2023-10-27T03:04:30.276Z,3819.50
2023-10-27T03:06:59.376Z,4589.83
2023-10-27T03:09:27.185Z,8347.73
2023-10-27T03:11:55.184Z,7055.14
2023-10-27T03:14:22.874Z,3145.88
2023-10-27T03:16:50.551Z,6320.45
2023-10-27T03:19:18.408Z,9796.81
2023-10-27T03:21:46.191Z,8292.12
2023-10-27T03:24:15.267Z,9298.31
2023-10-27T03:26:42.968Z,12595.70
2023-10-27T03:29:10.759Z,10661.50
2023-10-27T03:31:38.495Z,10279.41
2023-10-27T03:34:07.384Z,7556.81
2023-10-27T03:36:35.438Z,7726.75
2023-10-27T03:39:03.417Z,9328.87
2023-10-27T03:41:34.880Z,13693.67
2023-10-27T03:44:06.954Z,9134.66
2023-10-27T03:46:34.695Z,8210.37
2023-10-27T03:49:02.756Z,9482.80
2023-10-27T03:51:31.510Z,9251.68
2023-10-27T03:53:59.275Z,10773.23
2023-10-27T03:56:28.316Z,13512.61
2023-10-27T03:58:57.388Z,10046.76
2023-10-27T04:01:25.227Z,12683.15
2023-10-27T04:03:53.017Z,11371.70
2023-10-27T04:06:21.060Z,11646.10
2023-10-27T04:08:49.083Z,13090.24
2023-10-27T04:11:16.775Z,10861.04
2023-10-27T04:13:44.489Z,10703.01
2023-10-27T04:16:13.894Z,9871.20
2023-10-27T04:18:41.613Z,10695.09
2023-10-27T04:21:09.375Z,9506.08
2023-10-27T04:23:37.132Z,12092.53
2023-10-27T04:26:04.961Z,8658.45
2023-10-27T04:28:32.686Z,9756.75
2023-10-27T04:31:00.511Z,10003.99
2023-10-27T04:33:29.708Z,11150.02
2023-10-27T04:35:57.606Z,7664.47
2023-10-27T04:38:25.472Z,7975.03
2023-10-27T04:40:53.486Z,9632.20
2023-10-27T04:43:21.205Z,7658.79
2023-10-27T04:45:49.322Z,3174.43
2023-10-27T04:48:17.206Z,7808.27
2023-10-27T04:50:52.785Z,8233.25
2023-10-27T04:53:20.510Z,5479.03
2023-10-27T04:55:48.218Z,6929.09
2023-10-27T04:58:15.911Z,6300.09
2023-10-27T05:00:43.659Z,1582.27
2023-10-27T05:03:11.347Z,4569.22
2023-10-27T05:05:39.174Z,12813.40
2023-10-27T05:08:08.293Z,8488.22
2023-10-27T05:10:36.094Z,8724.61
2023-10-27T05:13:04.094Z,7925.00
2023-10-27T05:15:31.850Z,7161.22
2023-10-27T05:17:59.674Z,7451.71
2023-10-27T05:20:27.611Z,3896.97
2023-10-27T05:22:55.335Z,6431.99
2023-10-27T05:25:24.432Z,10156.86
2023-10-27T05:27:52.150Z,5026.52
2023-10-27T05:30:19.821Z,3574.48
2023-10-27T05:32:47.594Z,8831.66
2023-10-27T05:35:15.535Z,11469.65
2023-10-27T05:37:43.552Z,12287.23
2023-10-27T05:40:12.246Z,11941.37
2023-10-27T05:42:41.351Z,7283.46
2023-10-27T05:45:09.825Z,13001.74
2023-10-27T05:47:37.508Z,6266.21
2023-10-27T05:50:06.359Z,8031.55
2023-10-27T05:52:34.201Z,6927.41
2023-10-27T05:55:02.139Z,12041.05
2023-10-27T05:57:29.888Z,11376.80
2023-10-27T05:59:58.947Z,10718.85
2023-10-27T06:02:26.693Z,10659.15
2023-10-27T06:04:54.369Z,7735.02
2023-10-27T06:07:22.072Z,11931.63
2023-10-27T06:09:49.849Z,10577.13
2023-10-27T06:12:17.545Z,8872.22
2023-10-27T06:14:47.672Z,11080.04
2023-10-27T06:17:16.755Z,12664.84
2023-10-27T06:19:44.839Z,9468.14
2023-10-27T06:22:12.787Z,9416.94
2023-10-27T06:24:40.514Z,11661.74
2023-10-27T06:27:08.350Z,11378.91
2023-10-27T06:29:36.321Z,11505.06
2023-10-27T06:32:04.440Z,12871.30
2023-10-27T06:34:33.780Z,8502.32
2023-10-27T06:37:01.842Z,9611.81
2023-10-27T06:39:29.753Z,5262.92
2023-10-27T06:41:57.590Z,9122.64
2023-10-27T06:44:26.530Z,9305.35
2023-10-27T06:46:54.234Z,8853.47
2023-10-27T06:49:22.126Z,11998.76
2023-10-27T06:51:51.215Z,5640.88
2023-10-27T06:54:20.583Z,5955.82
2023-10-27T06:56:48.567Z,4512.78
2023-10-27T06:59:16.315Z,8509.08
2023-10-27T07:01:44.587Z,10723.84
2023-10-27T07:04:14.792Z,10686.76
2023-10-27T07:06:42.719Z,7953.63
2023-10-27T07:09:11.779Z,9219.35
2023-10-27T07:11:39.542Z,10077.55
2023-10-27T07:14:07.285Z,9224.98
2023-10-27T07:16:35.018Z,6114.73
2023-10-27T07:19:04.049Z,7995.43
2023-10-27T07:21:31.766Z,1499.39
2023-10-27T07:23:59.527Z,7986.73
2023-10-27T07:26:30.874Z,5845.50
2023-10-27T07:28:58.573Z,3445.21
2023-10-27T07:31:26.435Z,804.66
2023-10-27T07:33:54.190Z,2920.64
2023-10-27T07:36:22.940Z,8435.18
2023-10-27T07:38:51.254Z,10404.72
2023-10-27T07:41:18.987Z,12889.10
2023-10-27T07:43:48.065Z,10540.52
2023-10-27T07:46:15.878Z,6694.62
2023-10-27T07:48:45.173Z,9212.33
2023-10-27T07:51:12.929Z,7205.35
2023-10-27T07:53:43.829Z,1046.85
2023-10-27T07:56:12.276Z,1479.38
2023-10-27T07:58:40.105Z,6227.44
2023-10-27T08:01:09.229Z,6767.45
2023-10-27T08:03:37.056Z,5854.35
2023-10-27T08:06:08.222Z,9150.58
2023-10-27T08:08:36.845Z,10965.26
2023-10-27T08:11:05.062Z,7954.41
2023-10-27T08:13:33.116Z,12811.78
2023-10-27T08:16:01.246Z,8189.47
2023-10-27T08:18:30.899Z,11705.06
2023-10-27T08:20:59.050Z,9043.65
2023-10-27T08:23:27.201Z,6485.56
2023-10-27T08:25:54.998Z,10331.19
2023-10-27T08:28:22.759Z,6589.27
2023-10-27T08:30:50.558Z,11659.22
2023-10-27T08:33:18.370Z,9033.93
2023-10-27T08:35:47.501Z,6973.42
2023-10-27T08:38:15.210Z,1573.25
2023-10-27T08:40:44.013Z,1453.00
2023-10-27T08:43:13.114Z,3386.32
2023-10-27T08:45:43.042Z,1751.42
2023-10-27T08:48:13.831Z,3439.38
2023-10-27T08:50:42.104Z,4701.28
2023-10-27T08:53:12.991Z,888.62
2023-10-27T08:55:41.108Z,700.94
2023-10-27T08:58:08.886Z,4971.97
2023-10-27T09:00:36.891Z,2875.15
2023-10-27T09:03:17.111Z,4373.38
2023-10-27T09:05:45.408Z,5614.56
2023-10-27T09:08:14.442Z,3724.83
2023-10-27T09:10:42.198Z,641.94
2023-10-27T09:13:11.321Z,3471.43
2023-10-27T09:15:42.068Z,1488.17
2023-10-27T09:18:09.969Z,2203.04
2023-10-27T09:20:48.052Z,2221.06
2023-10-27T09:23:20.532Z,3294.09
2023-10-27T09:25:48.777Z,6253.26
2023-10-27T09:28:28.154Z,7051.80
2023-10-27T09:30:58.292Z,939.50
2023-10-27T09:33:26.117Z,6191.95
2023-10-27T09:35:55.323Z,1549.09
2023-10-27T09:38:24.399Z,10404.87
2023-10-27T09:40:52.165Z,11289.69
2023-10-27T09:43:21.612Z,13058.69
2023-10-27T09:45:53.015Z,11972.34
2023-10-27T09:48:24.504Z,10334.67
2023-10-27T09:51:00.612Z,9432.39
2023-10-27T09:53:30.385Z,6100.65
2023-10-27T09:55:59.884Z,9484.51
2023-10-27T09:58:30.943Z,4387.01
2023-10-27T10:01:00.009Z,3293.86
2023-10-27T10:03:28.173Z,5868.93
2023-10-27T10:06:10.786Z,6258.04
2023-10-27T10:08:41.130Z,3450.56
2023-10-27T10:11:13.638Z,11317.06
2023-10-27T10:13:41.465Z,1467.71
2023-10-27T10:16:10.910Z,6943.18
2023-10-27T10:18:54.462Z,14584.02
2023-10-27T10:21:33.561Z,19827.88
2023-10-27T10:24:11.676Z,9899.52
2023-10-27T10:27:03.687Z,6885.19
2023-10-27T10:29:34.396Z,4257.38
2023-10-27T10:32:35.043Z,13883.17
2023-10-27T10:35:25.446Z,5761.29
2023-10-27T10:37:54.093Z,9962.51
2023-10-27T10:40:25.771Z,13391.88
2023-10-27T10:43:21.802Z,11853.65
2023-10-27T10:45:52.117Z,18440.35
2023-10-27T10:48:20.252Z,9205.89
2023-10-27T10:50:49.253Z,10616.57
2023-10-27T10:53:18.851Z,13111.17
2023-10-27T10:55:49.345Z,14204.65
2023-10-27T10:58:23.890Z,12833.91
2023-10-27T11:00:52.762Z,11254.06
2023-10-27T11:03:23.316Z,9690.46
2023-10-27T11:05:51.938Z,12515.42
2023-10-27T11:08:25.426Z,18933.51
2023-10-27T11:11:02.296Z,13291.84
2023-10-27T11:13:31.753Z,2411.19
2023-10-27T11:16:02.217Z,2696.12
2023-10-27T11:18:31.039Z,3044.94
2023-10-27T11:20:58.757Z,1415.77
2023-10-27T11:23:27.621Z,2480.94
2023-10-27T11:26:04.590Z,330.70
2023-10-27T11:28:40.530Z,955.48
2023-10-27T11:31:10.393Z,1107.45
2023-10-27T11:34:05.079Z,1520.62
2023-10-27T11:36:34.798Z,13584.88
2023-10-27T11:39:16.322Z,16076.24
2023-10-27T11:41:49.351Z,17028.75
2023-10-27T11:44:17.555Z,11334.70
2023-10-27T11:46:47.315Z,8921.27
2023-10-27T11:49:15.557Z,12322.16
2023-10-27T11:51:43.373Z,12792.52
2023-10-27T11:54:11.120Z,14302.50
2023-10-27T11:56:38.828Z,6179.07
2023-10-27T11:59:08.152Z,9776.48
2023-10-27T12:01:36.992Z,4327.12
2023-10-27T12:04:05.957Z,7291.79
2023-10-27T12:06:33.735Z,13195.49
2023-10-27T12:09:03.502Z,6383.30
2023-10-27T12:11:31.574Z,4305.41
2023-10-27T12:13:59.286Z,6504.32
2023-10-27T12:16:31.414Z,6866.54
2023-10-27T12:18:59.168Z,8654.20
2023-10-27T12:21:28.238Z,9376.75
2023-10-27T12:23:57.886Z,8783.01
2023-10-27T12:26:29.193Z,5300.92
2023-10-27T12:28:56.896Z,6489.02
2023-10-27T12:31:24.696Z,4374.32
2023-10-27T12:33:53.786Z,575.88
2023-10-27T12:36:21.554Z,2523.69
2023-10-27T12:38:49.256Z,8484.44
2023-10-27T12:41:19.406Z,9257.83
2023-10-27T12:43:49.600Z,8338.79
2023-10-27T12:46:17.348Z,1536.86
2023-10-27T12:48:45.630Z,1900.73
2023-10-27T12:51:14.702Z,3549.19
2023-10-27T12:53:42.909Z,3119.78
2023-10-27T12:56:10.638Z,7780.00
2023-10-27T12:58:38.445Z,3515.36
2023-10-27T13:01:06.301Z,4480.45
2023-10-27T13:03:35.103Z,4106.05
2023-10-27T13:06:03.458Z,12591.97
2023-10-27T13:08:32.880Z,7788.59
2023-10-27T13:11:02.779Z,11352.59
2023-10-27T13:13:30.825Z,1790.40
2023-10-27T13:15:58.576Z,2737.04
2023-10-27T13:18:26.909Z,6089.59
2023-10-27T13:20:54.732Z,5150.88
2023-10-27T13:23:22.436Z,1943.14
2023-10-27T13:26:01.521Z,5436.04
2023-10-27T13:28:29.262Z,4231.71
2023-10-27T13:30:57.059Z,2074.39
2023-10-27T13:33:25.823Z,1059.07
2023-10-27T13:36:01.189Z,1830.63
2023-10-27T13:38:28.900Z,6846.84
2023-10-27T13:40:57.925Z,9971.71
2023-10-27T13:43:25.680Z,4559.19
2023-10-27T13:45:58.616Z,8175.18
2023-10-27T13:48:26.731Z,6687.55
2023-10-27T13:50:54.480Z,6426.24
2023-10-27T13:53:22.487Z,4155.77
2023-10-27T13:55:50.420Z,3131.26
2023-10-27T13:58:19.872Z,1071.20
2023-10-27T14:00:47.611Z,4777.25
2023-10-27T14:03:15.518Z,8806.00
2023-10-27T14:05:43.442Z,6624.61
2023-10-27T14:08:11.342Z,2997.75
2023-10-27T14:10:39.099Z,2964.34
2023-10-27T14:13:07.017Z,5002.46
2023-10-27T14:15:36.081Z,5182.27
2023-10-27T14:18:04.119Z,12884.72
2023-10-27T14:20:32.087Z,14383.84
2023-10-27T14:22:59.848Z,17955.79
2023-10-27T14:25:27.626Z,15706.60
2023-10-27T14:27:55.380Z,15190.16
2023-10-27T14:30:23.510Z,16407.49
2023-10-27T14:32:52.635Z,15363.52
2023-10-27T14:35:20.975Z,12978.21
2023-10-27T14:37:53.221Z,14609.65
2023-10-27T14:40:21.145Z,14594.89
2023-10-27T14:42:49.123Z,16650.26
2023-10-27T14:45:17.954Z,14111.46
2023-10-27T14:47:45.844Z,15784.82
2023-10-27T14:50:14.996Z,14618.83
2023-10-27T14:52:42.838Z,8396.10
2023-10-27T14:55:14.214Z,8559.07
2023-10-27T14:57:42.669Z,10402.63
2023-10-27T15:00:11.670Z,10360.10
2023-10-27T15:02:39.895Z,9975.67
2023-10-27T15:05:08.507Z,8082.89
2023-10-27T15:07:38.270Z,6106.07
2023-10-27T15:10:07.403Z,8527.93
2023-10-27T15:12:38.215Z,14714.80
2023-10-27T15:15:09.324Z,12828.38
2023-10-27T15:17:38.445Z,14277.99
2023-10-27T15:20:07.532Z,13982.77
2023-10-27T15:22:36.645Z,15267.99
2023-10-27T15:25:05.372Z,13513.73
2023-10-27T15:27:35.675Z,15448.37
2023-10-27T15:30:04.363Z,12301.30
2023-10-27T15:32:32.304Z,17107.09
2023-10-27T15:35:00.383Z,13964.64
2023-10-27T15:37:28.517Z,11501.00
2023-10-27T15:39:58.107Z,14976.76
2023-10-27T15:42:26.124Z,13598.25
2023-10-27T15:44:53.899Z,11210.93
2023-10-27T15:47:21.690Z,13797.27
2023-10-27T15:49:49.473Z,13297.02
2023-10-27T15:52:17.219Z,11322.65
2023-10-27T15:54:44.983Z,6159.77
2023-10-27T15:57:14.169Z,6828.41
2023-10-27T15:59:42.164Z,3884.93
2023-10-27T16:02:10.382Z,6592.14
2023-10-27T16:04:38.180Z,5357.09
2023-10-27T16:07:05.983Z,8014.81
2023-10-27T16:12:05.746Z,6421.20
2023-10-27T16:14:35.094Z,5669.22
2023-10-27T16:17:05.319Z,7876.47
2023-10-27T16:19:33.291Z,10369.22
2023-10-27T16:22:03.214Z,12716.79
2023-10-27T16:24:30.994Z,10064.29
2023-10-27T16:27:01.115Z,12058.33
2023-10-27T16:29:28.832Z,13175.70
2023-10-27T16:31:57.906Z,11617.37
2023-10-27T16:34:27.007Z,7657.46
2023-10-27T16:36:56.071Z,11040.76
2023-10-27T16:39:23.797Z,12238.18
2023-10-27T16:41:51.866Z,4311.67
2023-10-27T16:44:19.847Z,6895.04
2023-10-27T16:46:47.602Z,3296.88
2023-10-27T16:49:19.035Z,4264.99
2023-10-27T16:51:47.137Z,5534.04
2023-10-27T16:54:14.958Z,7595.62
2023-10-27T16:56:42.661Z,4859.89
2023-10-27T16:59:10.424Z,5435.91
2023-10-27T17:01:38.155Z,11742.71
2023-10-27T17:04:05.965Z,13356.66
2023-10-27T17:06:35.078Z,11068.75
2023-10-27T17:09:02.976Z,3723.67
2023-10-27T17:11:31.950Z,5134.75
2023-10-27T17:14:04.029Z,5171.45
2023-10-27T17:16:31.980Z,7137.22
2023-10-27T17:18:59.766Z,5888.20
2023-10-27T17:21:27.481Z,5455.60
2023-10-27T17:23:56.549Z,2041.14
2023-10-27T17:26:24.470Z,5460.11
2023-10-27T17:28:53.549Z,1175.98
2023-10-27T17:31:21.271Z,1015.82
2023-10-27T17:33:52.094Z,3318.11
2023-10-27T17:36:20.142Z,2187.78
2023-10-27T17:38:47.869Z,4321.76
2023-10-27T17:41:17.275Z,5063.79
2023-10-27T17:43:45.210Z,7488.27
2023-10-27T17:46:13.091Z,12471.53
2023-10-27T17:48:42.600Z,9762.74
2023-10-27T17:51:10.491Z,13139.72
2023-10-27T17:53:39.007Z,12115.13
2023-10-27T17:56:10.330Z,13036.42
2023-10-27T17:58:39.718Z,10351.89
2023-10-27T18:01:09.244Z,10889.79
2023-10-27T18:03:38.020Z,12906.95
2023-10-27T18:06:06.522Z,9507.50
2023-10-27T18:08:34.379Z,10567.54
2023-10-27T18:11:02.156Z,8276.13
2023-10-27T18:13:29.896Z,8218.93
2023-10-27T18:16:01.220Z,12000.54
2023-10-27T18:18:29.166Z,10978.12
2023-10-27T18:20:59.277Z,9972.20
2023-10-27T18:23:27.010Z,8747.60
2023-10-27T18:25:54.781Z,10438.31
2023-10-27T18:28:22.643Z,12829.72
2023-10-27T18:30:53.056Z,14223.90
2023-10-27T18:33:22.168Z,15413.55
2023-10-27T18:35:51.343Z,11554.19
2023-10-27T18:38:19.291Z,9086.63
2023-10-27T18:40:48.078Z,10424.99
2023-10-27T18:43:15.825Z,9483.69
2023-10-27T18:45:43.539Z,11376.13
2023-10-27T18:48:13.804Z,10998.34
2023-10-27T18:50:52.393Z,9893.28
2023-10-27T18:53:20.094Z,11633.99
2023-10-27T18:55:48.021Z,9891.50
2023-10-27T18:58:15.745Z,11039.30
2023-10-27T19:00:43.484Z,9447.00
2023-10-27T19:03:11.327Z,8174.67
2023-10-27T19:05:39.171Z,8147.01
2023-10-27T19:08:08.394Z,6726.97
2023-10-27T19:10:36.137Z,11996.93
2023-10-27T19:13:05.463Z,11862.03
2023-10-27T19:15:33.298Z,5874.46
2023-10-27T19:18:01.260Z,5461.03
2023-10-27T19:20:29.314Z,8809.77
2023-10-27T19:22:57.115Z,5296.17
2023-10-27T19:25:26.516Z,4473.69
2023-10-27T19:27:54.190Z,9054.30
2023-10-27T19:30:21.909Z,7672.00
2023-10-27T19:32:49.677Z,9863.78
2023-10-27T19:35:17.542Z,8507.62
2023-10-27T19:37:45.440Z,11112.39
2023-10-27T19:40:13.435Z,9067.43
2023-10-27T19:42:42.596Z,12207.93
2023-10-27T19:45:10.625Z,12100.37
2023-10-27T19:47:39.791Z,11233.34
2023-10-27T19:50:08.415Z,10288.68
2023-10-27T19:52:36.169Z,9971.05
2023-10-27T19:55:04.663Z,9345.76
2023-10-27T19:57:32.364Z,11846.53
2023-10-27T20:00:01.493Z,10725.46
2023-10-27T20:02:29.219Z,7675.44
2023-10-27T20:04:57.036Z,10498.96
2023-10-27T20:07:24.795Z,11760.64
2023-10-27T20:09:52.507Z,12460.63
2023-10-27T20:12:20.239Z,12822.37
2023-10-27T20:14:47.973Z,11200.39
2023-10-27T20:17:17.393Z,11280.07
2023-10-27T20:19:45.417Z,10262.35
2023-10-27T20:22:13.565Z,5906.76
2023-10-27T20:24:41.221Z,10425.57
2023-10-27T20:27:09.746Z,10736.71
2023-10-27T20:29:37.505Z,8836.35
2023-10-27T20:32:05.782Z,8309.74
2023-10-27T20:34:34.901Z,6758.12
2023-10-27T20:37:03.926Z,4499.99
2023-10-27T20:39:31.690Z,3371.04
2023-10-27T20:41:59.355Z,6632.69
2023-10-27T20:44:27.039Z,7889.85
2023-10-27T20:46:54.863Z,5896.80
2023-10-27T20:49:22.859Z,4277.53
2023-10-27T20:51:53.318Z,5235.01
2023-10-27T20:54:21.198Z,11709.57
2023-10-27T20:56:49.228Z,6987.79
2023-10-27T20:59:19.277Z,497.81
2023-10-27T21:01:47.018Z,2122.00
2023-10-27T21:04:15.018Z,2799.57
2023-10-27T21:06:42.684Z,93.69
2023-10-27T21:09:11.705Z,2149.67
2023-10-27T21:11:39.460Z,7657.58
2023-10-27T21:14:07.600Z,4805.54
2023-10-27T21:16:35.571Z,7322.33
2023-10-27T21:19:03.385Z,7645.75
2023-10-27T21:21:31.103Z,3955.67
2023-10-27T21:23:58.908Z,3025.94
2023-10-27T21:26:28.264Z,9030.87
2023-10-27T21:28:56.016Z,7737.87
2023-10-27T21:31:23.873Z,6021.43
2023-10-27T21:33:51.589Z,8517.02
2023-10-27T21:36:19.336Z,8258.90
2023-10-27T21:38:47.248Z,11682.52
2023-10-27T21:41:17.393Z,5680.57
2023-10-27T21:43:46.517Z,9042.88
2023-10-27T21:46:14.531Z,8871.71
2023-10-27T21:48:42.284Z,10887.13
2023-10-27T21:51:10.027Z,10887.86
2023-10-27T21:53:37.738Z,12975.30
2023-10-27T21:56:06.318Z,12090.58
2023-10-27T21:58:34.476Z,9733.94
2023-10-27T22:01:04.230Z,10854.17
2023-10-27T22:03:32.527Z,13924.28
2023-10-27T22:06:00.294Z,15768.64
2023-10-27T22:08:28.024Z,13345.08
2023-10-27T22:10:55.941Z,11977.22
2023-10-27T22:13:24.148Z,8674.50
2023-10-27T22:15:51.845Z,10855.59
2023-10-27T22:18:21.417Z,11412.06
2023-10-27T22:20:51.518Z,7658.85
2023-10-27T22:23:19.228Z,4634.88
2023-10-27T22:25:47.297Z,3974.13
2023-10-27T22:28:16.982Z,4347.54
2023-10-27T22:30:48.883Z,5809.82
2023-10-27T22:33:17.689Z,3201.71
2023-10-27T22:35:47.127Z,8953.90
2023-10-27T22:38:14.900Z,6380.57
2023-10-27T22:40:42.613Z,4483.21
2023-10-27T22:43:10.516Z,5320.40
2023-10-27T22:45:38.265Z,5758.46
2023-10-27T22:48:06.601Z,8726.72
2023-10-27T22:50:35.542Z,10982.95
2023-10-27T22:53:04.772Z,8198.95
2023-10-27T22:55:32.683Z,7265.06
2023-10-27T22:58:00.454Z,6172.96
2023-10-27T23:00:28.317Z,7378.37
2023-10-27T23:02:56.103Z,4067.21
2023-10-27T23:05:23.872Z,2212.16
2023-10-27T23:07:51.633Z,3322.14
2023-10-27T23:10:20.956Z,2081.35
2023-10-27T23:12:48.644Z,496.34
2023-10-27T23:15:16.527Z,155.57
2023-10-27T23:17:44.363Z,110.37
2023-10-27T23:20:12.522Z,285.35
2023-10-27T23:22:40.273Z,155.62
2023-10-27T23:25:08.473Z,226.71
2023-10-27T23:27:37.828Z,297.85
2023-10-27T23:30:06.935Z,423.38
2023-10-27T23:32:34.749Z,399.75
2023-10-27T23:35:02.499Z,560.42
2023-10-27T23:37:30.207Z,372.64
2023-10-27T23:39:57.866Z,206.44
2023-10-27T23:42:25.521Z,266.92
2023-10-27T23:44:54.544Z,152.52
2023-10-27T23:47:22.247Z,281.02
2023-10-27T23:49:49.942Z,157.02
2023-10-27T23:52:17.904Z,186.53
2023-10-27T23:54:45.632Z,172.39
2023-10-27T23:57:13.440Z,301.42
2023-10-27T23:59:41.326Z,424.27
